Latest Weather Observations for Alva Beach

IDQ60801

Issued at 10:35 pm EST Wednesday 27 August 2014 (issued every 30 minutes, with the page automatically refreshed every 10 minutes)

About weather observations | Map of weather stations | Latest weather observations for QLD | Other Formats
Station Details ID: 033295 Name: ALVA BEACH Lat: -19.46 Lon: 147.48 Height: 7.5 m
Data from the previous 72 hours. | See also: Recent months at Alva Beach
Date/Time
EST
Temp
°C
App
Temp
°C
Dew
Point
Rel
Hum
%
Delta-T
°C
Wind Press
QNH
hPa
Press
MSL
hPa
Rain
since 9 am
mm
Dir
 
Spd
km/h
Gust
km/h
Spd
kts
Gust
kts
27/10:30pm 14.8 14.2 12.3 85 1.4 SSW 7 13 4 7 1017.4 1017.4 0.0
27/10:00pm 14.9 14.2 11.9 82 1.6 SW 7 9 4 5 1017.3 1017.3 0.0
27/09:30pm 15.1 14.4 11.9 81 1.7 WSW 7 9 4 5 1016.9 1016.9 0.0
27/09:00pm 15.8 15.2 12.4 80 1.9 WSW 7 9 4 5 1016.9 1016.9 0.0
27/08:30pm 16.2 16.1 12.0 76 2.3 W 4 7 2 4 1016.7 1016.7 0.0
27/08:00pm 17.2 16.8 12.3 73 2.7 W 6 7 3 4 1016.4 1016.4 0.0
27/07:30pm 17.3 17.1 11.8 70 3.0 W 4 6 2 3 1016.0 1016.0 0.0
27/07:00pm 18.7 18.8 11.5 63 3.9 NW 2 7 1 4 1015.5 1015.5 0.0
27/06:30pm 19.8 18.9 11.3 58 4.7 NNW 7 11 4 6 1015.0 1015.0 0.0
27/06:00pm 20.6 19.7 11.2 55 5.2 NNW 7 13 4 7 1014.6 1014.6 0.0
27/05:30pm 21.4 20.4 11.1 52 5.7 N 7 13 4 7 1014.2 1014.2 0.0
27/05:00pm 22.0 20.4 10.2 47 6.4 N 9 15 5 8 1014.0 1014.0 0.0
27/04:30pm 22.4 20.3 11.2 49 6.2 N 13 20 7 11 1013.7 1013.7 0.0
27/04:00pm 22.9 20.2 11.6 49 6.3 N 17 20 9 11 1013.7 1013.7 0.0
27/03:30pm 23.3 20.0 9.7 42 7.4 N 17 22 9 12 1013.7 1013.7 0.0
27/03:00pm 23.3 20.2 12.3 50 6.3 NNE 20 24 11 13 1013.8 1013.8 0.0
27/02:30pm 22.8 19.8 12.1 51 6.1 NNE 19 22 10 12 1014.0 1014.0 0.0
27/02:00pm 22.5 19.2 10.9 48 6.4 NNE 19 22 10 12 1014.3 1014.3 0.0
27/01:30pm 22.9 19.9 11.9 50 6.2 NE 19 22 10 12 1014.8 1014.8 0.0
27/01:00pm 24.0 21.4 12.0 47 6.8 ENE 17 19 9 10 1015.3 1015.3 0.0
27/12:30pm 23.6 20.6 12.6 50 6.3 ENE 20 24 11 13 1015.7 1015.7 0.0
27/12:00pm 25.2 21.8 2.0 22 11.1 S 9 15 5 8 1016.3 1016.3 0.0
27/11:30am 25.2 22.7 4.9 27 10.2 SSW 7 13 4 7 1016.8 1016.8 0.0
27/11:00am 23.9 20.6 4.3 28 9.7 SSW 11 19 6 10 1017.3 1017.3 0.0
27/10:30am 23.6 20.7 6.4 33 8.8 SW 11 17 6 9 1017.7 1017.7 0.0
27/10:00am 22.1 20.0 9.6 45 6.7 SW 11 19 6 10 1018.0 1018.0 0.0
27/09:30am 20.9 19.3 11.5 55 5.2 SW 11 17 6 9 1018.2 1018.2 0.0
27/09:00am 19.6 17.4 10.9 57 4.7 SW 13 22 7 12 1018.0 1018.0 0.0
27/08:30am 18.4 17.4 12.2 67 3.4 SW 9 15 5 8 1018.0 1018.0 0.0
27/08:00am 16.5 15.2 11.4 72 2.7 SW 9 19 5 10 1017.8 1017.8 0.0
27/07:30am 14.3 13.1 11.5 83 1.5 SW 9 13 5 7 1017.6 1017.6 0.0
27/07:00am 13.1 11.8 11.2 88 1.0 SSW 9 13 5 7 1017.1 1017.1 0.0
27/06:30am 12.7 11.4 11.1 90 0.8 SW 9 13 5 7 1016.8 1016.8 0.0
27/06:00am 12.5 11.2 11.1 91 0.7 SSW 9 11 5 6 1016.4 1016.4 0.0
27/05:30am 12.6 11.3 11.2 91 0.7 SSW 9 11 5 6 1016.2 1016.2 0.0
27/05:00am 12.7 11.4 11.4 92 0.7 SW 9 11 5 6 1016.1 1016.1 0.0
27/04:30am 12.5 11.6 11.2 92 0.7 SW 7 11 4 6 1016.0 1016.0 0.0
27/04:00am 12.8 11.2 11.5 92 0.7 SSW 11 15 6 8 1015.9 1015.9 0.0
27/03:30am 12.9 11.3 11.5 91 0.7 SSW 11 15 6 8 1015.7 1015.7 0.0
27/03:00am 13.2 12.1 11.8 91 0.7 SSW 9 13 5 7 1015.7 1015.7 0.0
27/02:30am 13.5 12.4 12.1 91 0.8 WSW 9 11 5 6 1015.8 1015.8 0.0
27/02:00am 13.2 12.1 11.9 92 0.7 SW 9 9 5 5 1016.1 1016.1 0.0
27/01:30am 13.4 12.3 11.8 90 0.9 W 9 11 5 6 1016.4 1016.4 0.0
27/01:00am 14.4 13.8 12.3 87 1.1 SSW 7 9 4 5 1016.6 1016.6 0.0
27/12:30am 14.4 13.5 11.4 82 1.6 SW 7 9 4 5 1017.0 1017.0 0.0
27/12:00am 15.2 15.4 11.8 80 1.8 NE 2 6 1 3 1017.1 1017.1 0.0
 
Date/Time
EST
Temp
°C
App
Temp
°C
Dew
Point
Rel
Hum
%
Delta-T
°C
Wind Press
QNH
hPa
Press
MSL
hPa
Rain
since 9 am
mm
Dir
 
Spd
km/h
Gust
km/h
Spd
kts
Gust
kts
26/11:30pm 15.9 15.1 10.9 72 2.7 NNE 6 9 3 5 1017.2 1017.2 0.0
26/11:00pm 18.3 16.8 11.8 66 3.6 NE 11 13 6 7 1017.3 1017.3 0.0
26/10:30pm 18.3 17.0 12.5 69 3.2 NE 11 13 6 7 1017.3 1017.3 0.0
26/10:00pm 19.8 18.5 12.6 63 4.0 ENE 11 15 6 8 1017.4 1017.4 0.0
26/09:30pm 20.1 19.0 13.1 64 4.0 ENE 11 15 6 8 1017.4 1017.4 0.0
26/09:00pm 20.2 18.6 12.9 63 4.1 ENE 13 17 7 9 1017.4 1017.4 0.0
26/08:30pm 20.1 18.4 12.6 62 4.2 ENE 13 15 7 8 1017.2 1017.2 0.0
26/08:00pm 20.3 18.9 13.3 64 4.0 ENE 13 19 7 10 1017.0 1017.0 0.0
26/07:30pm 20.4 17.6 13.1 63 4.2 NE 20 24 11 13 1016.4 1016.4 0.0
26/07:00pm 20.3 17.0 12.8 62 4.2 ENE 22 26 12 14 1016.0 1016.0 0.0
26/06:30pm 20.5 17.4 13.5 64 4.0 ENE 22 26 12 14 1015.6 1015.6 0.0
26/06:00pm 20.7 18.0 13.4 63 4.2 NE 20 26 11 14 1015.4 1015.4 0.0
26/05:30pm 21.0 17.5 12.2 57 4.9 ENE 22 24 12 13 1015.1 1015.1 0.0
26/05:00pm 21.6 18.4 11.9 54 5.4 ENE 20 26 11 14 1015.0 1015.0 0.0
26/04:30pm 22.1 17.9 11.2 50 6.0 ENE 24 30 13 16 1014.7 1014.7 0.0
26/04:00pm 22.3 18.5 12.3 53 5.7 ENE 24 28 13 15 1014.5 1014.5 0.0
26/03:30pm 22.4 18.1 13.2 56 5.3 ENE 28 30 15 16 1014.3 1014.3 0.0
26/03:00pm 22.7 19.4 14.0 58 5.1 ENE 24 30 13 16 1014.4 1014.4 0.0
26/02:30pm 22.5 19.5 13.8 58 5.1 NE 22 26 12 14 1014.7 1014.7 0.0
26/02:00pm 22.4 19.4 13.7 58 5.0 ENE 22 26 12 14 1015.0 1015.0 0.0
26/01:30pm 22.7 20.0 14.5 60 4.8 ENE 22 26 12 14 1015.5 1015.5 0.0
26/01:00pm 22.6 19.8 13.1 55 5.5 ENE 20 24 11 13 1016.0 1016.0 0.0
26/12:30pm 22.0 19.5 12.3 54 5.5 E 17 22 9 12 1016.5 1016.5 0.0
26/12:00pm 22.3 20.1 12.0 52 5.8 E 15 20 8 11 1016.9 1016.9 0.0
26/11:30am 22.4 19.7 10.2 46 6.7 E 15 19 8 10 1017.6 1017.6 0.0
26/11:00am 22.4 20.0 10.2 46 6.6 E 13 19 7 10 1017.9 1017.9 0.0
26/10:30am 21.9 20.3 11.6 52 5.7 E 11 15 6 8 1018.2 1018.2 0.0
26/10:00am 22.0 21.0 11.1 50 6.0 ESE 7 15 4 8 1018.5 1018.5 0.0
26/09:30am 21.2 20.6 12.3 57 5.0 SE 7 11 4 6 1018.6 1018.6 0.0
26/09:00am 19.9 19.0 12.7 63 4.0 SSW 9 15 5 8 1018.4 1018.4 0.0
26/08:30am 18.2 17.5 13.1 72 2.9 SSW 9 13 5 7 1018.2 1018.2 0.0
26/08:00am 16.6 16.2 12.9 79 2.1 SW 7 13 4 7 1018.0 1018.0 0.0
26/07:30am 14.5 13.9 12.4 87 1.1 SW 7 11 4 6 1017.6 1017.6 0.0
26/07:00am 12.6 11.7 10.8 89 0.9 SSW 6 7 3 4 1017.3 1017.3 0.0
26/06:30am 12.8 12.0 11.7 93 0.6 S 7 9 4 5 1017.0 1017.0 0.0
26/06:00am 12.6 11.7 11.3 92 0.7 S 7 9 4 5 1016.8 1016.8 0.0
26/05:30am 12.5 11.2 11.1 91 0.7 SSW 9 11 5 6 1016.5 1016.5 0.0
26/05:00am 12.8 11.5 11.4 91 0.7 SSW 9 11 5 6 1016.2 1016.2 0.0
26/04:30am 13.1 12.3 11.7 91 0.7 SSW 7 11 4 6 1016.1 1016.1 0.0
26/04:00am 13.5 12.4 11.9 90 0.9 SSW 9 13 5 7 1016.1 1016.1 0.0
26/03:30am 13.8 12.8 12.2 90 0.9 SSW 9 13 5 7 1016.1 1016.1 0.0
26/03:00am 13.8 12.7 12.0 89 1.0 SSW 9 13 5 7 1016.1 1016.1 0.0
26/02:30am 13.8 12.6 11.5 86 1.2 SSW 9 13 5 7 1016.2 1016.2 0.0
26/02:00am 14.2 13.0 11.5 84 1.4 SSW 9 11 5 6 1016.5 1016.5 0.0
26/01:30am 14.6 13.9 11.9 84 1.5 SW 7 13 4 7 1016.8 1016.8 0.0
26/01:00am 14.8 14.0 11.8 82 1.6 SW 7 9 4 5 1017.3 1017.3 0.0
26/12:30am 14.9 13.7 11.5 80 1.8 WSW 9 11 5 6 1017.6 1017.6 0.0
26/12:00am 15.5 14.8 11.9 79 1.9 WSW 7 9 4 5 1017.9 1017.9 0.0
 
Date/Time
EST
Temp
°C
App
Temp
°C
Dew
Point
Rel
Hum
%
Delta-T
°C
Wind Press
QNH
hPa
Press
MSL
hPa
Rain
since 9 am
mm
Dir
 
Spd
km/h
Gust
km/h
Spd
kts
Gust
kts
25/11:30pm 15.5 15.0 11.9 79 2.0 SW 6 7 3 4 1018.0 1018.0 0.0
25/11:00pm 15.9 15.3 11.7 76 2.3 SW 6 9 3 5 1018.2 1018.2 0.0
25/10:30pm 18.2 17.0 11.7 66 3.6 S 9 17 5 9 1018.3 1018.3 0.0
25/10:00pm 19.9 18.9 13.4 66 3.7 ESE 11 19 6 10 1018.2 1018.2 0.0
25/09:30pm 20.2 18.6 12.9 63 4.1 E 13 22 7 12 1018.2 1018.2 0.0
25/09:00pm 20.9 19.0 14.1 65 3.9 E 17 22 9 12 1018.3 1018.3 0.0
25/08:30pm 20.8 18.7 13.5 63 4.2 E 17 22 9 12 1018.2 1018.2 0.0
25/08:00pm 20.6 18.9 13.6 64 4.0 E 15 20 8 11 1018.1 1018.1 0.0
25/07:30pm 20.8 18.6 13.3 62 4.3 E 17 20 9 11 1018.0 1018.0 0.0
25/07:00pm 20.9 18.7 13.4 62 4.3 E 17 24 9 13 1017.6 1017.6 0.0
25/06:30pm 20.8 17.8 12.5 59 4.7 E 20 28 11 15 1016.9 1016.9 0.0
25/06:00pm 21.0 18.2 13.2 61 4.5 E 20 28 11 15 1016.7 1016.7 0.0
25/05:30pm 21.3 18.0 12.7 58 4.9 E 22 28 12 15 1016.6 1016.6 0.0
25/05:00pm 21.5 18.3 13.2 59 4.7 E 22 28 12 15 1016.1 1016.1 0.0
25/04:30pm 21.9 18.0 13.3 58 4.9 ENE 26 32 14 17 1016.2 1016.2 0.0
25/04:00pm 22.1 19.0 14.5 62 4.5 ENE 24 32 13 17 1016.1 1016.1 0.0
25/03:30pm 22.1 18.8 14.0 60 4.7 ENE 24 28 13 15 1016.3 1016.3 0.0
25/03:00pm 22.4 19.8 13.7 58 5.0 E 20 30 11 16 1016.5 1016.5 0.0
25/02:30pm 22.6 20.0 13.1 55 5.5 E 19 26 10 14 1016.7 1016.7 0.0
25/02:00pm 22.6 19.9 13.4 56 5.3 E 20 28 11 15 1017.1 1017.1 0.0
25/01:30pm 22.8 19.8 13.6 56 5.3 E 22 32 12 17 1017.8 1017.8 0.0
25/01:00pm 22.4 19.8 13.2 56 5.3 E 19 28 10 15 1017.9 1017.9 0.0
25/12:30pm 22.1 20.1 14.0 60 4.7 E 17 22 9 12 1018.5 1018.5 0.0
25/12:00pm 22.2 20.2 13.8 59 4.9 E 17 24 9 13 1019.0 1019.0 0.0
25/11:30am 23.2 22.2 13.4 54 5.7 ESE 11 19 6 10 1019.7 1019.7 0.0
25/11:00am 22.7 21.8 13.7 56 5.2 ESE 11 17 6 9 1020.1 1020.1 0.0
25/10:30am 22.6 21.3 13.7 57 5.2 ESE 13 19 7 10 1020.4 1020.4 0.0
25/10:00am 22.5 20.9 13.8 58 5.0 ESE 15 24 8 13 1020.6 1020.6 0.0
25/09:30am 21.3 19.4 13.0 59 4.7 SE 15 26 8 14 1020.4 1020.4 0.0
25/09:00am 21.1 19.5 12.8 59 4.7 SSE 13 22 7 12 1020.4 1020.4 0.0
25/08:30am 19.7 19.4 14.3 71 3.1 SSE 9 17 5 9 1020.2 1020.2 0.0
25/08:00am 17.3 16.7 13.4 78 2.2 S 9 15 5 8 1020.0 1020.0 0.0
25/07:30am 15.9 15.4 13.7 87 1.2 SSW 9 13 5 7 1019.6 1019.6 0.0
25/07:00am 14.7 14.4 13.4 92 0.7 SSW 7 9 4 5 1019.4 1019.4 0.0
25/06:30am 13.9 13.4 12.8 93 0.6 SSW 7 9 4 5 1019.1 1019.1 0.0
25/06:00am 14.1 13.7 13.0 93 0.6 SSW 7 9 4 5 1018.8 1018.8 0.0
25/05:30am 14.1 13.9 13.0 93 0.6 SSW 6 9 3 5 1018.3 1018.3 0.0
25/05:00am 14.0 13.6 12.9 93 0.6 S 7 9 4 5 1018.2 1018.2 0.0
25/04:30am 14.3 13.6 13.2 93 0.6 SSW 9 13 5 7 1017.9 1017.9 0.0
25/04:00am 14.3 13.6 13.2 93 0.6 SSW 9 11 5 6 1017.7 1017.7 0.0
25/03:30am 14.5 13.9 13.4 93 0.6 SSW 9 13 5 7 1017.7 1017.7 0.0
25/03:00am 14.8 14.2 13.5 92 0.7 SSW 9 13 5 7 1017.9 1017.9 0.0
25/02:30am 15.0 14.4 13.5 91 0.8 SSW 9 11 5 6 1018.2 1018.2 0.0
25/02:00am 15.2 15.0 13.6 90 0.9 SSW 7 9 4 5 1018.3 1018.3 0.0
25/01:30am 15.4 15.2 13.6 89 1.0 SSW 7 11 4 6 1018.6 1018.6 0.0
25/01:00am 15.7 15.5 13.5 87 1.2 SSW 7 9 4 5 1018.9 1018.9 0.0
25/12:30am 15.9 15.9 13.6 86 1.3 SW 6 7 3 4 1019.0 1019.0 0.0
25/12:00am 15.8 15.6 12.9 83 1.6 SW 6 7 3 4 1019.4 1019.4 0.0
 
Date/Time
EST
Temp
°C
App
Temp
°C
Dew
Point
Rel
Hum
%
Delta-T
°C
Wind Press
QNH
hPa
Press
MSL
hPa
Rain
since 9 am
mm
Dir
 
Spd
km/h
Gust
km/h
Spd
kts
Gust
kts
24/11:30pm 16.2 16.1 13.3 83 1.6 SW 6 7 3 4 1019.4 1019.4 0.0
24/11:00pm 17.6 17.6 13.5 77 2.3 SSW 6 9 3 5 1019.4 1019.4 0.0

Other Formats:

Comma delimited format used in spreadsheet applications
http://www.bom.gov.au/fwo/IDQ60801/IDQ60801.95296.axf

JavaScript Object Notation format (JSON) in row-major order
http://www.bom.gov.au/fwo/IDQ60801/IDQ60801.95296.json